createdAt,value
2023-05-10T00:00:14.166Z,96054.84
2023-05-10T00:02:43.485Z,96064.56
2023-05-10T00:05:11.356Z,96052.16
2023-05-10T00:07:39.134Z,96072.09
2023-05-10T00:10:07.629Z,96070.41
2023-05-10T00:12:35.463Z,96068.69
2023-05-10T00:15:04.151Z,96062.44
2023-05-10T00:17:31.933Z,96057.25
2023-05-10T00:20:01.408Z,96074.53
2023-05-10T00:22:29.216Z,96070.78
2023-05-10T00:24:56.892Z,96079.16
2023-05-10T00:27:24.719Z,96082.28
2023-05-10T00:29:52.689Z,96074.53
2023-05-10T00:32:20.485Z,96085.28
2023-05-10T00:34:50.176Z,96084.28
2023-05-10T00:37:19.381Z,96092.38
2023-05-10T00:39:47.122Z,96066.41
2023-05-10T00:42:15.161Z,96091.53
2023-05-10T00:44:42.955Z,96093.47
2023-05-10T00:47:13.228Z,96094.22
2023-05-10T00:49:41.539Z,96096.72
2023-05-10T00:52:10.037Z,96087.91
2023-05-10T00:54:39.231Z,96092.38
2023-05-10T00:57:07.112Z,96106.31
2023-05-10T00:59:35.028Z,96104.72
2023-05-10T01:02:03.547Z,96099.22
2023-05-10T01:04:32.289Z,96103.59
2023-05-10T01:07:00.509Z,96108.19
2023-05-10T01:09:28.330Z,96105.63
2023-05-10T01:12:00.839Z,96100.25
2023-05-10T01:14:29.355Z,96090.00
2023-05-10T01:16:57.333Z,96105.63
2023-05-10T01:19:27.289Z,96109.63
2023-05-10T01:22:04.293Z,96027.16
2023-05-10T01:24:54.056Z,96109.63
2023-05-10T01:27:54.365Z,96106.75
2023-05-10T01:30:44.648Z,96113.91
2023-05-10T01:33:21.463Z,96105.53
2023-05-10T01:35:57.616Z,96114.03
2023-05-10T01:38:35.142Z,96113.91
2023-05-10T01:41:14.156Z,96115.28
2023-05-10T01:43:50.749Z,96119.41
2023-05-10T01:46:22.775Z,96119.69
2023-05-10T01:48:53.922Z,96123.16
2023-05-10T01:51:25.201Z,96119.69
2023-05-10T01:53:59.919Z,96123.97
2023-05-10T01:56:30.175Z,96122.44
2023-05-10T01:58:59.987Z,96129.44
2023-05-10T02:01:29.501Z,96130.34
2023-05-10T02:04:00.293Z,96124.88
2023-05-10T02:06:29.293Z,96135.72
2023-05-10T02:08:57.862Z,96134.34
2023-05-10T02:11:27.206Z,96123.84
2023-05-10T02:13:56.054Z,96120.88
2023-05-10T02:16:27.329Z,96122.53
2023-05-10T02:18:56.258Z,96127.84
2023-05-10T02:21:26.446Z,96122.94
2023-05-10T02:23:56.107Z,96124.31
2023-05-10T02:26:26.981Z,96114.94
2023-05-10T02:28:56.869Z,96123.28
2023-05-10T02:31:25.319Z,96102.41
2023-05-10T02:33:54.086Z,96120.66
2023-05-10T02:36:24.400Z,96121.91
2023-05-10T02:38:54.844Z,96119.41
2023-05-10T02:41:23.828Z,96125.28
2023-05-10T02:43:52.966Z,96130.75
2023-05-10T02:46:21.163Z,96098.97
2023-05-10T02:48:49.063Z,96126.44
2023-05-10T02:51:21.602Z,96124.25
2023-05-10T02:53:55.484Z,96116.69
2023-05-10T02:56:35.534Z,96115.06
2023-05-10T02:59:03.403Z,96114.28
2023-05-10T03:01:31.605Z,96118.59
2023-05-10T03:03:59.418Z,96113.94
2023-05-10T03:06:27.450Z,96112.88
2023-05-10T03:08:57.502Z,96109.41
2023-05-10T03:11:40.066Z,96102.97
2023-05-10T03:14:16.698Z,96113.56
2023-05-10T03:16:48.921Z,96130.00
2023-05-10T03:19:24.675Z,96122.50
2023-05-10T03:21:55.531Z,96126.78
2023-05-10T03:24:29.348Z,96121.72
2023-05-10T03:26:58.807Z,96122.84
2023-05-10T03:29:28.467Z,96128.34
2023-05-10T03:31:56.325Z,96134.88
2023-05-10T03:34:26.006Z,96138.69
2023-05-10T03:36:53.730Z,96120.69
2023-05-10T03:39:22.258Z,96116.31
2023-05-10T03:41:51.450Z,96133.56
2023-05-10T03:44:19.154Z,96126.50
2023-05-10T03:46:47.010Z,96135.72
2023-05-10T03:49:15.047Z,96093.47
2023-05-10T03:51:45.399Z,96135.03
2023-05-10T03:54:13.259Z,96135.56
2023-05-10T03:56:41.080Z,96131.25
2023-05-10T03:59:12.775Z,96136.00
2023-05-10T04:01:40.889Z,96139.25
2023-05-10T04:04:08.786Z,96143.00
2023-05-10T04:06:36.800Z,96131.34
2023-05-10T04:09:06.531Z,96152.16
2023-05-10T04:11:34.436Z,96148.16
2023-05-10T04:14:02.459Z,96138.09
2023-05-10T04:16:31.706Z,96119.78
2023-05-10T04:19:00.711Z,96148.88
2023-05-10T04:21:29.860Z,96136.00
2023-05-10T04:23:57.733Z,96146.78
2023-05-10T04:26:27.899Z,96140.34
2023-05-10T04:28:55.776Z,96127.72
2023-05-10T04:31:23.836Z,96146.84
2023-05-10T04:33:54.296Z,96150.59
2023-05-10T04:36:22.180Z,96158.94
2023-05-10T04:38:50.004Z,96154.59
2023-05-10T04:41:20.382Z,96154.72
2023-05-10T04:43:50.063Z,96140.22
2023-05-10T04:46:17.868Z,96165.06
2023-05-10T04:48:45.678Z,96147.25
2023-05-10T04:51:15.153Z,96146.44
2023-05-10T04:53:46.503Z,96160.19
2023-05-10T04:56:18.965Z,96161.78
2023-05-10T04:58:46.911Z,96147.84
2023-05-10T05:01:14.952Z,96173.66
2023-05-10T05:03:43.672Z,96170.94
2023-05-10T05:06:11.503Z,96164.50
2023-05-10T05:08:40.581Z,96168.53
2023-05-10T05:11:08.384Z,96176.03
2023-05-10T05:13:36.158Z,96170.56
2023-05-10T05:16:04.301Z,96183.28
2023-05-10T05:18:32.236Z,96188.09
2023-05-10T05:21:00.064Z,96192.84
2023-05-10T05:23:27.909Z,96190.16
2023-05-10T05:25:57.424Z,96183.19
2023-05-10T05:28:25.280Z,96199.88
2023-05-10T05:30:53.181Z,96195.66
2023-05-10T05:33:21.049Z,96177.91
2023-05-10T05:35:51.698Z,96174.81
2023-05-10T05:38:22.390Z,96204.84
2023-05-10T05:40:50.196Z,96184.34
2023-05-10T05:43:19.377Z,96192.66
2023-05-10T05:45:47.376Z,96192.06
2023-05-10T05:48:15.269Z,96137.25
2023-05-10T05:50:45.078Z,96196.91
2023-05-10T05:53:16.025Z,96129.50
2023-05-10T05:55:53.274Z,96106.97
2023-05-10T05:58:24.989Z,96173.28
2023-05-10T06:00:53.222Z,96170.50
2023-05-10T06:03:21.779Z,96199.66
2023-05-10T06:05:49.968Z,96191.06
2023-05-10T06:08:17.701Z,96191.38
2023-05-10T06:10:45.488Z,96177.13
2023-05-10T06:13:13.509Z,96215.44
2023-05-10T06:15:42.639Z,96198.09
2023-05-10T06:18:10.491Z,96205.72
2023-05-10T06:20:38.382Z,96208.94
2023-05-10T06:23:06.319Z,96225.16
2023-05-10T06:25:34.095Z,96223.09
2023-05-10T06:28:03.165Z,96211.53
2023-05-10T06:30:31.072Z,96223.81
2023-05-10T06:33:00.358Z,96214.06
2023-05-10T06:35:29.284Z,96216.22
2023-05-10T06:37:57.402Z,96214.91
2023-05-10T06:40:25.179Z,96205.16
2023-05-10T06:42:53.402Z,96209.84
2023-05-10T06:45:21.652Z,96220.94
2023-05-10T06:47:49.488Z,96210.22
2023-05-10T06:50:18.657Z,96216.41
2023-05-10T06:52:46.446Z,96230.25
2023-05-10T06:55:14.486Z,96224.13
2023-05-10T06:57:42.536Z,96230.50
2023-05-10T07:00:14.443Z,96190.13
2023-05-10T07:02:42.294Z,96227.56
2023-05-10T07:05:12.804Z,96155.13
2023-05-10T07:07:41.986Z,96218.91
2023-05-10T07:10:10.661Z,96233.22
2023-05-10T07:12:39.142Z,96225.31
2023-05-10T07:15:08.194Z,96202.66
2023-05-10T07:17:36.070Z,96239.22
2023-05-10T07:20:05.885Z,96217.41
2023-05-10T07:22:33.621Z,96235.84
2023-05-10T07:25:05.929Z,96236.38
2023-05-10T07:27:33.790Z,96233.34
2023-05-10T07:30:01.644Z,96235.78
2023-05-10T07:32:29.811Z,96217.56
2023-05-10T07:35:00.088Z,96238.81
2023-05-10T07:37:28.082Z,96237.84
2023-05-10T07:39:57.201Z,96238.00
2023-05-10T07:42:26.382Z,96239.94
2023-05-10T07:44:58.781Z,96242.63
2023-05-10T07:47:26.969Z,96234.41
2023-05-10T07:49:54.819Z,96240.19
2023-05-10T07:52:22.965Z,96230.22
2023-05-10T07:54:50.815Z,96243.75
2023-05-10T07:57:19.671Z,96246.72
2023-05-10T07:59:48.845Z,96238.66
2023-05-10T08:02:16.692Z,96251.94
2023-05-10T08:04:44.509Z,96260.69
2023-05-10T08:07:12.852Z,96248.13
2023-05-10T08:09:40.815Z,96216.91
2023-05-10T08:12:08.594Z,96251.56
2023-05-10T08:14:37.528Z,96250.72
2023-05-10T08:17:06.892Z,96240.47
2023-05-10T08:19:34.731Z,96257.38
2023-05-10T08:22:02.502Z,96256.63
2023-05-10T08:24:30.406Z,96228.66
2023-05-10T08:26:58.303Z,96250.66
2023-05-10T08:29:26.784Z,96236.00
2023-05-10T08:31:58.084Z,96254.03
2023-05-10T08:34:28.990Z,96252.38
2023-05-10T08:36:58.762Z,96234.72
2023-05-10T08:39:30.813Z,96253.38
2023-05-10T08:42:03.375Z,96259.00
2023-05-10T08:44:37.387Z,96261.53
2023-05-10T08:47:07.909Z,96233.88
2023-05-10T08:49:39.289Z,96261.41
2023-05-10T08:52:10.527Z,96249.25
2023-05-10T08:54:38.910Z,96263.13
2023-05-10T08:57:16.199Z,96215.53
2023-05-10T08:59:47.049Z,96224.06
2023-05-10T09:02:18.597Z,96258.72
2023-05-10T09:04:51.269Z,96271.06
2023-05-10T09:07:22.054Z,96271.84
2023-05-10T09:09:51.198Z,96271.75
2023-05-10T09:12:19.114Z,96215.94
2023-05-10T09:14:50.220Z,96225.13
2023-05-10T09:17:19.961Z,96241.81
2023-05-10T09:19:49.245Z,96274.16
2023-05-10T09:22:18.191Z,96275.25
2023-05-10T09:24:46.413Z,96227.50
2023-05-10T09:27:14.190Z,96277.47
2023-05-10T09:29:42.357Z,96288.91
2023-05-10T09:32:13.836Z,96291.84
2023-05-10T09:34:43.294Z,96273.44
2023-05-10T09:37:12.951Z,96265.47
2023-05-10T09:39:42.316Z,96274.16
2023-05-10T09:42:11.607Z,96283.56
2023-05-10T09:44:40.393Z,96286.34
2023-05-10T09:47:08.195Z,96274.16
2023-05-10T09:49:36.604Z,96272.22
2023-05-10T09:52:06.074Z,96276.28
2023-05-10T09:54:36.967Z,96277.81
2023-05-10T09:57:12.072Z,96276.22
2023-05-10T09:59:44.946Z,96284.78
2023-05-10T10:02:12.952Z,96271.34
2023-05-10T10:04:42.591Z,96263.06
2023-05-10T10:07:11.057Z,96282.72
2023-05-10T10:09:41.019Z,96288.22
2023-05-10T10:12:09.013Z,96280.53
2023-05-10T10:14:39.427Z,96274.56
2023-05-10T10:17:08.983Z,96285.44
2023-05-10T10:19:38.019Z,96285.97
2023-05-10T10:22:06.132Z,96279.25
2023-05-10T10:24:34.174Z,96273.13
2023-05-10T10:27:11.355Z,96267.28
2023-05-10T10:29:50.513Z,96272.53
2023-05-10T10:32:28.013Z,96277.44
2023-05-10T10:34:58.387Z,96273.44
2023-05-10T10:37:42.985Z,96287.22
2023-05-10T10:40:25.770Z,96271.88
2023-05-10T10:42:55.720Z,96264.31
2023-05-10T10:45:25.022Z,96284.81
2023-05-10T10:48:22.477Z,96264.59
2023-05-10T10:50:57.847Z,96281.00
2023-05-10T10:53:28.495Z,96277.81
2023-05-10T10:56:08.528Z,96259.13
2023-05-10T10:58:39.128Z,96256.44
2023-05-10T11:01:14.691Z,96266.59
2023-05-10T11:03:43.471Z,96274.28
2023-05-10T11:06:11.366Z,96274.19
2023-05-10T11:08:48.775Z,96263.63
2023-05-10T11:11:19.587Z,96255.63
2023-05-10T11:13:51.396Z,96257.69
2023-05-10T11:16:21.563Z,96252.16
2023-05-10T11:19:00.639Z,96252.47
2023-05-10T11:21:30.175Z,96252.22
2023-05-10T11:23:59.790Z,96260.69
2023-05-10T11:26:32.136Z,96269.81
2023-05-10T11:29:01.881Z,96260.91
2023-05-10T11:31:31.983Z,96231.91
2023-05-10T11:34:03.784Z,96264.47
2023-05-10T11:36:34.556Z,96276.97
2023-05-10T11:39:02.559Z,96261.41
2023-05-10T11:41:31.877Z,96245.81
2023-05-10T11:44:01.756Z,96259.38
2023-05-10T11:46:30.552Z,96252.16
2023-05-10T11:49:02.867Z,96257.88
2023-05-10T11:51:31.289Z,96255.91
2023-05-10T11:53:59.511Z,96256.97
2023-05-10T11:56:28.164Z,96258.94
2023-05-10T11:58:57.623Z,96261.34
2023-05-10T12:01:28.313Z,96259.16
2023-05-10T12:03:59.596Z,96254.53
2023-05-10T12:06:30.071Z,96267.19
2023-05-10T12:09:01.119Z,96253.47
2023-05-10T12:11:30.845Z,96267.66
2023-05-10T12:13:58.663Z,96266.16
2023-05-10T12:16:31.144Z,96253.22
2023-05-10T12:19:01.211Z,96258.69
2023-05-10T12:21:31.395Z,96265.16
2023-05-10T12:24:03.249Z,96261.13
2023-05-10T12:26:31.770Z,96259.91
2023-05-10T12:29:14.833Z,96260.47
2023-05-10T12:31:54.856Z,96263.00
2023-05-10T12:34:32.246Z,96268.50
2023-05-10T12:37:00.650Z,96244.03
2023-05-10T12:39:28.447Z,96271.03
2023-05-10T12:41:56.281Z,96269.72
2023-05-10T12:44:24.101Z,96254.97
2023-05-10T12:46:53.228Z,96250.78
2023-05-10T12:49:21.141Z,96243.03
2023-05-10T12:51:50.680Z,96250.94
2023-05-10T12:54:18.618Z,96245.16
2023-05-10T12:56:46.446Z,96241.13
2023-05-10T12:59:14.169Z,96253.09
2023-05-10T13:01:41.914Z,96254.72
2023-05-10T13:04:11.153Z,96232.81
2023-05-10T13:06:38.936Z,96247.22
2023-05-10T13:09:06.653Z,96252.69
2023-05-10T13:11:34.637Z,96249.44
2023-05-10T13:14:04.410Z,96220.63
2023-05-10T13:16:32.145Z,96237.88
2023-05-10T13:19:00.128Z,96249.72
2023-05-10T13:21:29.429Z,96249.50
2023-05-10T13:23:57.282Z,96248.94
2023-05-10T13:26:25.031Z,96246.28
2023-05-10T13:28:53.063Z,96225.50
2023-05-10T13:31:21.550Z,96251.38
2023-05-10T13:33:49.433Z,96249.69
2023-05-10T13:36:17.326Z,96240.72
2023-05-10T13:38:46.570Z,96244.44
2023-05-10T13:41:14.339Z,96242.88
2023-05-10T13:43:42.117Z,96226.94
2023-05-10T13:46:09.961Z,96233.66
2023-05-10T13:48:39.170Z,96227.91
2023-05-10T13:51:07.107Z,96227.13
2023-05-10T13:53:34.858Z,96237.34
2023-05-10T13:56:04.283Z,96229.28
2023-05-10T13:58:32.029Z,96212.31
2023-05-10T14:00:59.769Z,96230.50
2023-05-10T14:03:27.611Z,96225.72
2023-05-10T14:05:55.422Z,96221.50
2023-05-10T14:08:23.600Z,96229.59
2023-05-10T14:10:51.719Z,96218.22
2023-05-10T14:13:20.924Z,96240.81
2023-05-10T14:15:48.732Z,96229.47
2023-05-10T14:18:16.469Z,96196.06
2023-05-10T14:20:44.236Z,96212.81
2023-05-10T14:23:12.341Z,96207.47
2023-05-10T14:25:40.922Z,96224.69
2023-05-10T14:28:11.193Z,96206.84
2023-05-10T14:30:40.297Z,96227.22
2023-05-10T14:33:08.790Z,96230.00
2023-05-10T14:35:36.957Z,96204.88
2023-05-10T14:38:05.362Z,96214.16
2023-05-10T14:40:33.159Z,96212.94
2023-05-10T14:43:01.230Z,96218.09
2023-05-10T14:45:28.927Z,96209.81
2023-05-10T14:48:00.019Z,96195.47
2023-05-10T14:50:36.375Z,96205.88
2023-05-10T14:53:05.132Z,96198.88
2023-05-10T14:55:33.700Z,96192.25
2023-05-10T14:58:01.518Z,96187.19
2023-05-10T15:00:31.253Z,96172.78
2023-05-10T15:03:01.007Z,96209.00
2023-05-10T15:05:29.358Z,96194.00
2023-05-10T15:07:57.473Z,96200.94
2023-05-10T15:10:25.296Z,96215.34
2023-05-10T15:12:53.084Z,96201.75
2023-05-10T15:15:20.785Z,96193.13
2023-05-10T15:17:49.451Z,96200.41
2023-05-10T15:20:18.807Z,96177.03
2023-05-10T15:22:46.715Z,96210.72
2023-05-10T15:25:15.266Z,96217.16
2023-05-10T15:27:44.504Z,96225.78
2023-05-10T15:30:13.105Z,96224.97
2023-05-10T15:32:41.518Z,96237.38
2023-05-10T15:35:10.483Z,96231.66
2023-05-10T15:37:40.031Z,96243.47
2023-05-10T15:40:08.979Z,96232.53
2023-05-10T15:42:36.712Z,96249.63
2023-05-10T15:45:05.083Z,96273.28
2023-05-10T15:47:33.100Z,96298.94
2023-05-10T15:50:01.182Z,96289.63
2023-05-10T15:52:29.008Z,96295.41
2023-05-10T15:54:58.294Z,96277.25
2023-05-10T15:57:26.037Z,96293.06
2023-05-10T15:59:53.737Z,96282.59
2023-05-10T16:02:22.677Z,96264.56
2023-05-10T16:04:51.597Z,96257.25
2023-05-10T16:07:19.325Z,96268.06
2023-05-10T16:09:47.110Z,96272.75
2023-05-10T16:12:16.760Z,96268.34
2023-05-10T16:14:44.759Z,96279.34
2023-05-10T16:17:12.577Z,96265.16
2023-05-10T16:19:40.985Z,96256.88
2023-05-10T16:22:08.974Z,96266.63
2023-05-10T16:24:36.916Z,96270.63
2023-05-10T16:27:04.782Z,96262.59
2023-05-10T16:29:33.947Z,96284.16
2023-05-10T16:32:01.844Z,96257.97
2023-05-10T16:34:29.775Z,96257.66
2023-05-10T16:36:57.536Z,96269.69
2023-05-10T16:39:25.335Z,96280.22
2023-05-10T16:41:53.186Z,96273.25
2023-05-10T16:44:23.896Z,96292.72
2023-05-10T16:46:55.145Z,96253.78
2023-05-10T16:49:25.221Z,96288.75
2023-05-10T16:51:53.969Z,96290.94
2023-05-10T16:54:22.022Z,96295.47
2023-05-10T16:56:49.899Z,96291.94
2023-05-10T16:59:17.684Z,96303.84
2023-05-10T17:01:46.925Z,96293.47
2023-05-10T17:04:16.518Z,96301.00
2023-05-10T17:06:44.453Z,96300.84
2023-05-10T17:09:12.335Z,96286.53
2023-05-10T17:11:40.120Z,96280.75
2023-05-10T17:14:07.976Z,96278.66
2023-05-10T17:16:35.854Z,96281.47
2023-05-10T17:19:03.801Z,96298.47
2023-05-10T17:21:33.142Z,96267.88
2023-05-10T17:24:03.639Z,96293.53
2023-05-10T17:26:31.767Z,96284.41
2023-05-10T17:29:02.955Z,96290.59
2023-05-10T17:31:31.084Z,96288.00
2023-05-10T17:33:59.209Z,96299.78
2023-05-10T17:36:27.147Z,96319.78
2023-05-10T17:38:56.469Z,96304.09
2023-05-10T17:41:24.494Z,96295.50
2023-05-10T17:43:52.420Z,96267.03
2023-05-10T17:46:20.343Z,96317.50
2023-05-10T17:48:48.252Z,96287.06
2023-05-10T17:51:16.200Z,96302.63
2023-05-10T17:53:44.628Z,96297.72
2023-05-10T17:56:13.927Z,96310.44
2023-05-10T17:58:43.392Z,96286.44
2023-05-10T18:01:11.419Z,96333.59
2023-05-10T18:03:41.279Z,96335.25
2023-05-10T18:06:09.139Z,96315.59
2023-05-10T18:08:37.020Z,96329.25
2023-05-10T18:11:04.870Z,96313.59
2023-05-10T18:13:34.004Z,96337.69
2023-05-10T18:16:01.744Z,96333.88
2023-05-10T18:18:31.632Z,96310.19
2023-05-10T18:20:59.635Z,96336.81
2023-05-10T18:23:27.904Z,96328.13
2023-05-10T18:25:55.870Z,96323.91
2023-05-10T18:28:24.439Z,96339.41
2023-05-10T18:30:53.754Z,96328.44
2023-05-10T18:33:21.528Z,96307.97
2023-05-10T18:35:49.409Z,96329.25
2023-05-10T18:38:17.340Z,96309.88
2023-05-10T18:40:45.107Z,96306.69
2023-05-10T18:43:13.024Z,96332.56
2023-05-10T18:45:40.936Z,96338.19
2023-05-10T18:48:10.047Z,96341.44
2023-05-10T18:50:37.950Z,96335.50
2023-05-10T18:53:05.813Z,96351.25
2023-05-10T18:55:33.943Z,96303.38
2023-05-10T18:58:01.876Z,96359.03
2023-05-10T19:00:48.762Z,96298.84
2023-05-10T19:03:18.017Z,96359.69
2023-05-10T19:05:48.780Z,96363.97
2023-05-10T19:08:16.731Z,96353.34
2023-05-10T19:10:44.527Z,96365.38
2023-05-10T19:13:12.823Z,96376.41
2023-05-10T19:15:41.504Z,96370.63
2023-05-10T19:18:09.507Z,96376.47
2023-05-10T19:20:46.366Z,96378.53
2023-05-10T19:23:17.060Z,96380.69
2023-05-10T19:25:46.016Z,96381.44
2023-05-10T19:28:14.148Z,96379.84
2023-05-10T19:30:42.748Z,96397.91
2023-05-10T19:33:12.734Z,96394.69
2023-05-10T19:35:43.572Z,96400.25
2023-05-10T19:38:12.253Z,96367.59
2023-05-10T19:40:40.770Z,96406.94
2023-05-10T19:43:08.741Z,96387.78
2023-05-10T19:45:38.193Z,96403.03
2023-05-10T19:48:07.322Z,96398.34
2023-05-10T19:50:35.504Z,96405.94
2023-05-10T19:53:04.825Z,96414.09
2023-05-10T19:55:33.781Z,96411.88
2023-05-10T19:58:01.639Z,96407.44
2023-05-10T20:00:29.724Z,96409.06
2023-05-10T20:02:57.679Z,96397.22
2023-05-10T20:05:25.808Z,96418.59
2023-05-10T20:07:53.756Z,96413.09
2023-05-10T20:10:27.180Z,96416.88
2023-05-10T20:12:55.202Z,96400.50
2023-05-10T20:15:24.364Z,96387.31
2023-05-10T20:17:53.260Z,96406.91
2023-05-10T20:20:22.946Z,96420.75
2023-05-10T20:22:51.783Z,96411.91
2023-05-10T20:25:20.151Z,96423.50
2023-05-10T20:27:51.114Z,96418.63
2023-05-10T20:30:19.786Z,96415.72
2023-05-10T20:32:47.833Z,96367.44
2023-05-10T20:35:15.884Z,96424.69
2023-05-10T20:37:45.684Z,96401.69
2023-05-10T20:40:13.996Z,96417.00
2023-05-10T20:42:41.900Z,96408.41
2023-05-10T20:45:12.157Z,96421.19
2023-05-10T20:47:39.939Z,96424.69
2023-05-10T20:50:08.794Z,96413.88
2023-05-10T20:52:36.567Z,96360.00
2023-05-10T20:55:08.494Z,96417.28
2023-05-10T20:57:36.594Z,96417.00
2023-05-10T21:00:06.442Z,96421.78
2023-05-10T21:02:35.670Z,96425.28
2023-05-10T21:05:03.712Z,96412.13
2023-05-10T21:07:32.865Z,96400.72
2023-05-10T21:10:00.677Z,96390.25
2023-05-10T21:12:28.443Z,96391.84
2023-05-10T21:14:56.199Z,96395.50
2023-05-10T21:17:24.033Z,96398.75
2023-05-10T21:19:53.371Z,96396.53
2023-05-10T21:22:21.532Z,96401.34
2023-05-10T21:24:49.298Z,96405.84
2023-05-10T21:27:17.549Z,96397.69
2023-05-10T21:29:45.809Z,96392.34
2023-05-10T21:32:15.012Z,96358.22
2023-05-10T21:34:45.525Z,96399.44
2023-05-10T21:37:18.538Z,96322.47
2023-05-10T21:39:46.419Z,96343.84
2023-05-10T21:42:14.264Z,96407.56
2023-05-10T21:44:42.145Z,96401.91
2023-05-10T21:47:10.099Z,96387.63
2023-05-10T21:49:37.908Z,96385.91
2023-05-10T21:52:06.124Z,96398.00
2023-05-10T21:54:35.450Z,96394.16
2023-05-10T21:57:03.342Z,96386.06
2023-05-10T21:59:31.084Z,96397.66
2023-05-10T22:01:58.938Z,96395.56
2023-05-10T22:04:26.821Z,96393.72
2023-05-10T22:06:54.630Z,96394.75
2023-05-10T22:09:24.313Z,96389.53
2023-05-10T22:11:53.555Z,96399.63
2023-05-10T22:14:21.323Z,96401.84
2023-05-10T22:16:52.532Z,96406.25
2023-05-10T22:19:20.706Z,96333.78
2023-05-10T22:21:48.628Z,96388.50
2023-05-10T22:24:23.858Z,96377.34
2023-05-10T22:26:56.085Z,96390.81
2023-05-10T22:29:24.212Z,96390.09
2023-05-10T22:31:54.072Z,96392.53
2023-05-10T22:34:24.727Z,96392.06
2023-05-10T22:36:52.497Z,96392.88
2023-05-10T22:39:20.308Z,96375.94
2023-05-10T22:41:48.110Z,96393.94
2023-05-10T22:44:17.690Z,96383.78
2023-05-10T22:46:45.672Z,96392.06
2023-05-10T22:49:18.592Z,96352.81
2023-05-10T22:51:46.672Z,96371.13
2023-05-10T22:54:14.504Z,96340.25
2023-05-10T22:56:42.740Z,96353.38
2023-05-10T22:59:15.850Z,96328.66
2023-05-10T23:01:45.349Z,96378.34
2023-05-10T23:04:13.231Z,96360.50
2023-05-10T23:06:41.034Z,96393.72
2023-05-10T23:09:09.048Z,96392.81
2023-05-10T23:11:36.877Z,96395.47
2023-05-10T23:14:07.185Z,96386.84
2023-05-10T23:16:35.009Z,96396.75
2023-05-10T23:19:04.420Z,96401.03
2023-05-10T23:21:32.543Z,96396.97
2023-05-10T23:24:00.385Z,96394.66
2023-05-10T23:26:28.147Z,96400.09
2023-05-10T23:28:56.033Z,96386.50
2023-05-10T23:31:24.032Z,96389.66
2023-05-10T23:33:51.927Z,96373.50
2023-05-10T23:36:21.080Z,96398.50
2023-05-10T23:38:48.905Z,96392.78
2023-05-10T23:41:16.651Z,96374.69
2023-05-10T23:43:44.375Z,96395.69
2023-05-10T23:46:12.205Z,96392.31
2023-05-10T23:48:39.995Z,96388.03
2023-05-10T23:51:09.201Z,96381.16
2023-05-10T23:53:38.636Z,96381.41
2023-05-10T23:56:07.863Z,96379.31
2023-05-10T23:58:35.582Z,96373.72
